RJKB(METAR)
05/30 17:33
RJKB 300833Z 12013G24KT 0500 +RA FEW003 SCT006 BKN008 24/24 Q1010
RMK A2984=
戻る
トップページへ戻る
IMOC Co,.Ltd.